createdAt,value
2022-08-30T00:02:22.373Z,9.45
2022-08-30T00:04:54.172Z,11.05
2022-08-30T00:07:22.803Z,11.38
2022-08-30T00:09:50.261Z,10.07
2022-08-30T00:12:17.868Z,9.15
2022-08-30T00:14:45.461Z,10.85
2022-08-30T00:17:13.673Z,10.35
2022-08-30T00:19:41.116Z,9.80
2022-08-30T00:22:10.107Z,8.25
2022-08-30T00:24:38.281Z,9.50
2022-08-30T00:27:05.686Z,10.10
2022-08-30T00:29:32.921Z,10.75
2022-08-30T00:32:02.414Z,10.05
2022-08-30T00:34:29.632Z,10.02
2022-08-30T00:36:57.427Z,7.20
2022-08-30T00:39:25.144Z,8.45
2022-08-30T00:41:52.461Z,8.75
2022-08-30T00:44:19.830Z,9.23
2022-08-30T00:46:47.146Z,9.88
2022-08-30T00:49:15.105Z,9.85
2022-08-30T00:51:43.259Z,11.82
2022-08-30T00:54:12.364Z,10.18
2022-08-30T00:56:39.973Z,9.45
2022-08-30T00:59:09.111Z,8.65
2022-08-30T01:01:37.755Z,10.32
2022-08-30T01:04:08.913Z,11.00
2022-08-30T01:06:39.835Z,11.23
2022-08-30T01:09:08.705Z,10.05
2022-08-30T01:11:38.144Z,9.57
2022-08-30T01:14:08.863Z,9.10
2022-08-30T01:16:40.238Z,10.20
2022-08-30T01:19:28.803Z,8.32
2022-08-30T01:22:08.976Z,10.82
2022-08-30T01:24:36.839Z,9.23
2022-08-30T01:27:05.002Z,8.23
2022-08-30T01:29:32.684Z,10.82
2022-08-30T01:31:59.858Z,9.32
2022-08-30T01:34:27.134Z,9.63
2022-08-30T01:36:54.570Z,9.23
2022-08-30T01:39:22.170Z,8.50
2022-08-30T01:41:49.487Z,14.18
2022-08-30T01:44:17.098Z,9.98
2022-08-30T01:46:47.805Z,9.48
2022-08-30T01:49:23.074Z,9.27
2022-08-30T01:52:00.787Z,9.35
2022-08-30T01:54:36.907Z,10.02
2022-08-30T01:57:09.850Z,8.15
2022-08-30T01:59:39.548Z,9.55
2022-08-30T02:02:08.226Z,12.75
2022-08-30T02:04:36.863Z,9.68
2022-08-30T02:07:09.084Z,10.88
2022-08-30T02:09:37.662Z,9.45
2022-08-30T02:12:07.826Z,11.35
2022-08-30T02:14:37.141Z,9.45
2022-08-30T02:17:09.164Z,8.95
2022-08-30T02:19:36.714Z,10.43
2022-08-30T02:22:05.546Z,9.63
2022-08-30T02:24:33.607Z,10.93
2022-08-30T02:27:00.925Z,9.50
2022-08-30T02:29:28.292Z,8.32
2022-08-30T02:31:55.614Z,9.60
2022-08-30T02:34:23.159Z,9.60
2022-08-30T02:36:50.668Z,11.25
2022-08-30T02:39:18.206Z,10.15
2022-08-30T02:41:46.800Z,9.30
2022-08-30T02:44:15.709Z,8.55
2022-08-30T02:46:43.215Z,9.55
2022-08-30T02:49:32.763Z,9.73
2022-08-30T02:51:58.134Z,8.43
2022-08-30T02:54:25.994Z,10.57
2022-08-30T02:56:53.936Z,8.35
2022-08-30T02:59:21.198Z,9.43
2022-08-30T03:01:48.956Z,10.07
2022-08-30T03:04:16.498Z,8.93
2022-08-30T03:06:43.877Z,11.88
2022-08-30T03:09:11.239Z,9.43
2022-08-30T03:11:38.943Z,12.50
2022-08-30T03:14:06.360Z,12.50
2022-08-30T03:16:33.951Z,11.45
2022-08-30T03:19:01.340Z,10.20
2022-08-30T03:21:28.664Z,12.40
2022-08-30T03:23:56.541Z,10.60
2022-08-30T03:26:23.767Z,10.55
2022-08-30T03:28:50.984Z,10.48
2022-08-30T03:31:18.200Z,11.50
2022-08-30T03:33:45.627Z,11.60
2022-08-30T03:36:12.885Z,11.40
2022-08-30T03:38:40.470Z,13.13
2022-08-30T03:41:08.089Z,13.05
2022-08-30T03:43:36.472Z,10.50
2022-08-30T03:46:05.118Z,10.18
2022-08-30T03:48:32.492Z,15.77
2022-08-30T03:50:59.795Z,10.25
2022-08-30T03:53:27.406Z,12.30
2022-08-30T03:55:55.218Z,11.95
2022-08-30T03:58:25.156Z,11.20
2022-08-30T04:00:52.510Z,9.52
2022-08-30T04:03:25.712Z,11.45
2022-08-30T04:05:56.787Z,10.15
2022-08-30T04:08:25.592Z,11.82
2022-08-30T04:10:55.586Z,11.13
2022-08-30T04:13:24.661Z,9.57
2022-08-30T04:15:51.941Z,11.95
2022-08-30T04:18:19.296Z,11.15
2022-08-30T04:20:47.463Z,13.50
2022-08-30T04:23:15.047Z,10.40
2022-08-30T04:25:42.832Z,11.35
2022-08-30T04:28:11.185Z,11.90
2022-08-30T04:30:44.855Z,13.43
2022-08-30T04:33:15.226Z,12.00
2022-08-30T04:35:48.306Z,10.05
2022-08-30T04:38:17.749Z,11.23
2022-08-30T04:40:50.120Z,10.75
2022-08-30T04:43:17.683Z,11.07
2022-08-30T04:45:45.194Z,11.82
2022-08-30T04:48:12.438Z,11.50
2022-08-30T04:50:39.964Z,12.00
2022-08-30T04:53:14.979Z,14.13
2022-08-30T04:55:43.919Z,13.07
2022-08-30T04:58:12.183Z,11.93
2022-08-30T05:00:42.103Z,11.10
2022-08-30T05:03:09.537Z,10.77
2022-08-30T05:05:39.956Z,11.32
2022-08-30T05:08:14.534Z,14.30
2022-08-30T05:10:47.099Z,12.32
2022-08-30T05:13:18.501Z,11.77
2022-08-30T05:15:47.193Z,9.77
2022-08-30T05:18:15.822Z,10.35
2022-08-30T05:20:44.162Z,9.18
2022-08-30T05:23:12.014Z,10.63
2022-08-30T05:25:42.347Z,9.40
2022-08-30T05:28:09.768Z,9.35
2022-08-30T05:30:38.377Z,8.63
2022-08-30T05:33:05.843Z,8.73
2022-08-30T05:35:33.095Z,7.70
2022-08-30T05:38:00.847Z,9.73
2022-08-30T05:40:29.227Z,10.45
2022-08-30T05:42:56.582Z,8.35
2022-08-30T05:45:24.053Z,7.80
2022-08-30T05:47:51.308Z,8.38
2022-08-30T05:50:18.774Z,8.45
2022-08-30T05:52:48.497Z,10.25
2022-08-30T05:55:16.081Z,7.50
2022-08-30T05:57:43.475Z,9.57
2022-08-30T06:00:18.404Z,9.00
2022-08-30T06:02:46.112Z,7.78
2022-08-30T06:05:14.635Z,11.48
2022-08-30T06:07:43.539Z,8.18
2022-08-30T06:10:12.495Z,7.93
2022-08-30T06:12:40.473Z,9.27
2022-08-30T06:15:08.909Z,9.90
2022-08-30T06:17:36.491Z,10.13
2022-08-30T06:20:04.544Z,9.25
2022-08-30T06:22:32.122Z,7.13
2022-08-30T06:24:59.403Z,9.55
2022-08-30T06:27:26.735Z,9.30
2022-08-30T06:29:54.084Z,10.77
2022-08-30T06:32:21.486Z,8.25
2022-08-30T06:34:49.489Z,10.43
2022-08-30T06:37:29.146Z,7.38
2022-08-30T06:39:59.385Z,10.90
2022-08-30T06:42:32.260Z,12.35
2022-08-30T06:45:10.655Z,8.90
2022-08-30T06:47:40.559Z,10.27
2022-08-30T06:50:11.840Z,12.02
2022-08-30T06:52:47.737Z,8.93
2022-08-30T06:55:18.563Z,9.65
2022-08-30T06:57:47.184Z,10.25
2022-08-30T07:00:17.911Z,9.95
2022-08-30T07:02:45.403Z,7.90
2022-08-30T07:05:18.032Z,10.45
2022-08-30T07:07:46.117Z,10.43
2022-08-30T07:10:15.325Z,8.85
2022-08-30T07:12:48.781Z,8.55
2022-08-30T07:15:16.586Z,11.07
2022-08-30T07:18:02.474Z,10.40
2022-08-30T07:20:40.009Z,7.75
2022-08-30T07:23:10.318Z,7.95
2022-08-30T07:25:41.617Z,9.35
2022-08-30T07:28:11.874Z,8.10
2022-08-30T07:30:41.848Z,10.85
2022-08-30T07:33:09.885Z,8.25
2022-08-30T07:35:37.324Z,11.52
2022-08-30T07:38:10.253Z,11.60
2022-08-30T07:40:38.754Z,10.05
2022-08-30T07:43:06.427Z,6.80
2022-08-30T07:45:34.119Z,8.38
2022-08-30T07:48:03.334Z,7.63
2022-08-30T07:50:31.051Z,7.13
2022-08-30T07:52:58.803Z,7.05
2022-08-30T07:55:26.464Z,7.47
2022-08-30T07:57:53.717Z,8.35
2022-08-30T08:00:21.234Z,7.28
2022-08-30T08:02:48.575Z,10.07
2022-08-30T08:05:18.133Z,8.07
2022-08-30T08:07:46.954Z,9.27
2022-08-30T08:10:21.723Z,7.57
2022-08-30T08:12:49.655Z,7.63
2022-08-30T08:15:21.866Z,9.38
2022-08-30T08:17:49.337Z,6.20
2022-08-30T08:20:16.799Z,8.10
2022-08-30T08:22:44.043Z,8.38
2022-08-30T08:25:11.313Z,7.72
2022-08-30T08:27:38.865Z,7.00
2022-08-30T08:30:07.454Z,8.18
2022-08-30T08:32:35.121Z,13.70
2022-08-30T08:35:02.624Z,17.52
2022-08-30T08:37:30.091Z,11.75
2022-08-30T08:39:57.639Z,9.95
2022-08-30T08:43:01.393Z,11.85
2022-08-30T08:46:17.153Z,9.88
2022-08-30T08:49:00.898Z,8.52
2022-08-30T08:51:57.425Z,8.20
2022-08-30T08:54:51.597Z,8.23
2022-08-30T08:57:22.715Z,7.15
2022-08-30T08:59:54.392Z,8.77
2022-08-30T09:02:41.264Z,8.77
2022-08-30T09:05:15.587Z,8.02
2022-08-30T09:07:52.509Z,10.98
2022-08-30T09:10:40.363Z,6.22
2022-08-30T09:13:12.982Z,5.93
2022-08-30T09:15:41.099Z,7.90
2022-08-30T09:18:19.495Z,8.10
2022-08-30T09:20:51.627Z,9.02
2022-08-30T09:23:19.038Z,9.13
2022-08-30T09:25:59.409Z,8.77
2022-08-30T09:29:05.212Z,6.05
2022-08-30T09:31:52.940Z,7.07
2022-08-30T09:34:33.617Z,6.40
2022-08-30T09:37:01.081Z,5.75
2022-08-30T09:39:39.340Z,6.47
2022-08-30T09:42:26.037Z,6.68
2022-08-30T09:45:10.394Z,6.47
2022-08-30T09:47:44.403Z,7.10
2022-08-30T09:50:17.002Z,5.15
2022-08-30T09:53:23.434Z,7.68
2022-08-30T09:56:12.234Z,5.38
2022-08-30T09:59:34.305Z,5.65
2022-08-30T10:02:25.656Z,5.75
2022-08-30T10:05:33.664Z,5.65
2022-08-30T10:08:32.989Z,8.05
2022-08-30T10:11:22.114Z,6.78
2022-08-30T10:14:05.545Z,7.00
2022-08-30T10:17:04.710Z,6.90
2022-08-30T10:20:30.473Z,7.13
2022-08-30T10:23:11.475Z,5.60
2022-08-30T10:26:54.491Z,5.22
2022-08-30T10:29:40.637Z,6.38
2022-08-30T10:33:25.524Z,5.70
2022-08-30T10:37:07.923Z,5.32
2022-08-30T10:41:09.128Z,5.28
2022-08-30T10:44:52.158Z,7.38
2022-08-30T10:48:35.423Z,4.68
2022-08-30T10:52:17.916Z,6.00
2022-08-30T10:56:06.291Z,5.28
2022-08-30T10:59:48.915Z,5.72
2022-08-30T11:03:33.055Z,5.03
2022-08-30T11:07:15.787Z,6.43
2022-08-30T11:10:58.832Z,4.97
2022-08-30T11:14:41.449Z,7.55
2022-08-30T11:18:25.891Z,5.72
2022-08-30T11:22:08.665Z,4.55
2022-08-30T11:25:56.876Z,4.38
2022-08-30T11:29:40.686Z,4.40
2022-08-30T11:33:23.845Z,6.13
2022-08-30T11:35:53.679Z,5.45
2022-08-30T11:38:26.903Z,4.75
2022-08-30T11:42:09.414Z,5.05
2022-08-30T11:44:36.675Z,5.43
2022-08-30T11:48:17.216Z,5.30
2022-08-30T11:51:20.287Z,5.65
2022-08-30T11:55:02.542Z,4.70
2022-08-30T11:58:44.914Z,7.38
2022-08-30T12:01:46.898Z,6.35
2022-08-30T12:04:37.541Z,6.32
2022-08-30T12:07:09.354Z,6.45
2022-08-30T12:10:51.013Z,5.18
2022-08-30T12:13:42.784Z,5.85
2022-08-30T12:17:44.345Z,4.30
2022-08-30T12:21:28.177Z,5.57
2022-08-30T12:24:34.800Z,6.70
2022-08-30T12:28:18.370Z,6.30
2022-08-30T12:30:46.737Z,6.70
2022-08-30T12:34:34.335Z,5.35
2022-08-30T12:38:18.392Z,5.05
2022-08-30T12:40:58.454Z,5.55
2022-08-30T12:44:41.129Z,5.65
2022-08-30T12:48:24.005Z,4.70
2022-08-30T12:50:59.213Z,7.22
2022-08-30T12:53:42.161Z,4.88
2022-08-30T12:56:30.458Z,4.78
2022-08-30T12:59:05.006Z,4.68
2022-08-30T13:01:36.569Z,5.22
2022-08-30T13:04:27.702Z,4.80
2022-08-30T13:06:59.518Z,8.23
2022-08-30T13:09:43.939Z,5.32
2022-08-30T13:12:27.358Z,5.95
2022-08-30T13:15:21.272Z,5.00
2022-08-30T13:17:49.446Z,5.93
2022-08-30T13:20:16.738Z,5.40
2022-08-30T13:23:59.234Z,8.35
2022-08-30T13:27:44.377Z,5.38
2022-08-30T13:31:27.465Z,5.90
2022-08-30T13:35:10.163Z,8.75
2022-08-30T13:38:52.769Z,5.93
2022-08-30T13:42:35.251Z,6.68
2022-08-30T13:46:18.502Z,7.90
2022-08-30T13:48:46.686Z,6.20
2022-08-30T13:51:14.126Z,6.47
2022-08-30T13:54:56.664Z,6.10
2022-08-30T13:58:39.712Z,5.18
2022-08-30T14:02:24.206Z,7.25
2022-08-30T14:04:51.504Z,5.60
2022-08-30T14:07:20.223Z,6.32
2022-08-30T14:11:03.105Z,4.78
2022-08-30T14:13:31.201Z,7.20
2022-08-30T14:17:14.064Z,5.72
2022-08-30T14:19:41.279Z,6.88
2022-08-30T14:22:08.581Z,6.90
2022-08-30T14:24:36.068Z,6.53
2022-08-30T14:27:03.514Z,8.02
2022-08-30T14:29:31.602Z,6.28
2022-08-30T14:32:00.324Z,6.63
2022-08-30T14:34:27.931Z,5.70
2022-08-30T14:36:56.315Z,6.65
2022-08-30T14:39:24.187Z,8.48
2022-08-30T14:41:55.571Z,5.65
2022-08-30T14:44:25.442Z,4.88
2022-08-30T14:46:54.230Z,7.20
2022-08-30T14:49:22.931Z,6.15
2022-08-30T14:51:51.709Z,6.60
2022-08-30T14:54:26.086Z,6.97
2022-08-30T14:56:54.856Z,7.00
2022-08-30T14:59:24.065Z,4.80
2022-08-30T15:01:52.107Z,9.02
2022-08-30T15:04:21.536Z,6.70
2022-08-30T15:06:50.515Z,6.22
2022-08-30T15:09:23.779Z,10.02
2022-08-30T15:11:59.624Z,7.35
2022-08-30T15:14:29.214Z,7.10
2022-08-30T15:17:02.601Z,7.75
2022-08-30T15:19:32.341Z,8.30
2022-08-30T15:22:06.026Z,6.63
2022-08-30T15:24:33.798Z,5.93
2022-08-30T15:27:02.224Z,7.07
2022-08-30T15:29:31.795Z,6.30
2022-08-30T15:32:02.109Z,5.03
2022-08-30T15:34:32.078Z,6.28
2022-08-30T15:37:00.210Z,7.97
2022-08-30T15:39:27.940Z,6.30
2022-08-30T15:42:00.756Z,5.13
2022-08-30T15:44:31.372Z,5.22
2022-08-30T15:46:59.481Z,6.40
2022-08-30T15:49:26.715Z,5.63
2022-08-30T15:51:54.653Z,6.13
2022-08-30T15:54:24.087Z,5.72
2022-08-30T15:56:59.000Z,5.45
2022-08-30T15:59:29.921Z,7.07
2022-08-30T16:01:57.671Z,9.85
2022-08-30T16:04:25.645Z,6.28
2022-08-30T16:06:53.783Z,5.35
2022-08-30T16:09:22.249Z,6.00
2022-08-30T16:11:49.760Z,7.50
2022-08-30T16:14:17.677Z,7.13
2022-08-30T16:16:46.471Z,5.45
2022-08-30T16:19:14.391Z,7.88
2022-08-30T16:21:44.067Z,5.53
2022-08-30T16:24:13.861Z,5.47
2022-08-30T16:26:43.337Z,8.57
2022-08-30T16:29:13.342Z,5.32
2022-08-30T16:31:45.628Z,8.05
2022-08-30T16:34:20.111Z,8.52
2022-08-30T16:36:47.787Z,6.28
2022-08-30T16:39:16.586Z,5.30
2022-08-30T16:41:45.542Z,6.35
2022-08-30T16:44:15.958Z,6.25
2022-08-30T16:46:53.750Z,6.40
2022-08-30T16:49:25.440Z,7.47
2022-08-30T16:51:54.671Z,5.53
2022-08-30T16:54:22.853Z,8.30
2022-08-30T16:56:51.013Z,5.65
2022-08-30T16:59:18.931Z,6.30
2022-08-30T17:01:46.512Z,9.90
2022-08-30T17:04:18.501Z,7.90
2022-08-30T17:06:49.887Z,8.35
2022-08-30T17:09:19.222Z,6.53
2022-08-30T17:11:47.548Z,6.05
2022-08-30T17:14:16.343Z,5.82
2022-08-30T17:16:50.463Z,6.90
2022-08-30T17:19:18.559Z,7.43
2022-08-30T17:21:54.545Z,6.20
2022-08-30T17:24:21.792Z,5.97
2022-08-30T17:26:49.255Z,6.60
2022-08-30T17:29:17.603Z,6.30
2022-08-30T17:31:51.168Z,6.90
2022-08-30T17:34:24.175Z,6.43
2022-08-30T17:36:55.492Z,7.30
2022-08-30T17:39:24.838Z,5.68
2022-08-30T17:41:52.901Z,8.15
2022-08-30T17:44:26.881Z,5.55
2022-08-30T17:46:56.417Z,6.53
2022-08-30T17:49:24.994Z,6.35
2022-08-30T17:51:56.718Z,6.00
2022-08-30T17:54:28.219Z,7.60
2022-08-30T17:56:57.650Z,6.60
2022-08-30T17:59:27.260Z,6.93
2022-08-30T18:01:59.172Z,5.97
2022-08-30T18:04:26.641Z,6.25
2022-08-30T18:06:55.447Z,6.40
2022-08-30T18:09:24.039Z,6.55
2022-08-30T18:11:52.178Z,8.13
2022-08-30T18:14:24.534Z,7.90
2022-08-30T18:16:54.469Z,6.68
2022-08-30T18:19:27.921Z,8.43
2022-08-30T18:21:56.565Z,7.82
2022-08-30T18:24:25.044Z,6.13
2022-08-30T18:26:54.782Z,9.10
2022-08-30T18:29:29.157Z,5.97
2022-08-30T18:32:02.508Z,6.88
2022-08-30T18:34:30.705Z,7.55
2022-08-30T18:36:57.987Z,7.55
2022-08-30T18:39:26.176Z,6.25
2022-08-30T18:41:54.462Z,7.25
2022-08-30T18:44:43.867Z,7.13
2022-08-30T18:47:11.858Z,5.97
2022-08-30T18:49:39.197Z,5.38
2022-08-30T18:52:10.364Z,7.47
2022-08-30T18:54:51.787Z,8.02
2022-08-30T18:57:22.006Z,7.38
2022-08-30T18:59:50.351Z,6.70
2022-08-30T19:02:17.796Z,7.22
2022-08-30T19:04:45.811Z,6.32
2022-08-30T19:07:16.607Z,5.25
2022-08-30T19:09:47.745Z,5.85
2022-08-30T19:12:15.289Z,7.53
2022-08-30T19:14:46.450Z,6.40
2022-08-30T19:17:14.350Z,5.80
2022-08-30T19:19:48.772Z,9.32
2022-08-30T19:22:26.624Z,5.35
2022-08-30T19:24:54.680Z,5.90
2022-08-30T19:27:37.639Z,8.05
2022-08-30T19:30:20.567Z,7.35
2022-08-30T19:32:51.549Z,7.32
2022-08-30T19:35:21.250Z,6.07
2022-08-30T19:37:48.516Z,8.27
2022-08-30T19:40:19.182Z,9.05
2022-08-30T19:42:47.723Z,7.15
2022-08-30T19:45:18.546Z,7.22
2022-08-30T19:51:00.314Z,6.97
2022-08-30T19:53:27.911Z,8.18
2022-08-30T19:55:55.095Z,6.32
2022-08-30T19:58:22.282Z,6.60
2022-08-30T20:00:53.022Z,8.57
2022-08-30T20:03:28.681Z,7.20
2022-08-30T20:05:57.087Z,6.35
2022-08-30T20:08:24.254Z,6.28
2022-08-30T20:10:52.324Z,6.68
2022-08-30T20:13:23.586Z,8.65
2022-08-30T20:15:59.065Z,6.95
2022-08-30T20:18:26.985Z,5.80
2022-08-30T20:20:55.286Z,6.68
2022-08-30T20:23:26.325Z,8.35
2022-08-30T20:25:55.458Z,7.32
2022-08-30T20:28:25.713Z,8.10
2022-08-30T20:30:55.874Z,6.57
2022-08-30T20:33:25.028Z,6.07
2022-08-30T20:35:52.567Z,8.85
2022-08-30T20:38:21.711Z,6.13
2022-08-30T20:41:01.015Z,6.55
2022-08-30T20:43:31.451Z,7.05
2022-08-30T20:45:58.774Z,7.13
2022-08-30T20:48:28.636Z,6.75
2022-08-30T20:51:04.689Z,6.80
2022-08-30T20:53:32.168Z,6.97
2022-08-30T20:55:59.429Z,7.78
2022-08-30T20:58:26.848Z,7.40
2022-08-30T21:00:55.576Z,7.88
2022-08-30T21:03:26.439Z,6.75
2022-08-30T21:05:57.693Z,6.90
2022-08-30T21:08:26.253Z,8.43
2022-08-30T21:10:54.536Z,8.20
2022-08-30T21:13:22.395Z,5.55
2022-08-30T21:16:00.363Z,6.60
2022-08-30T21:18:33.117Z,9.20
2022-08-30T21:21:09.375Z,7.35
2022-08-30T21:23:37.137Z,8.02
2022-08-30T21:26:10.305Z,7.40
2022-08-30T21:28:38.709Z,5.70
2022-08-30T21:31:19.169Z,7.40
2022-08-30T21:33:50.050Z,7.13
2022-08-30T21:36:37.054Z,6.32
2022-08-30T21:39:06.823Z,6.40
2022-08-30T21:41:37.388Z,8.18
2022-08-30T21:44:18.807Z,8.20
2022-08-30T21:46:48.381Z,6.45
2022-08-30T21:49:21.448Z,6.95
2022-08-30T21:51:52.383Z,5.47
2022-08-30T21:54:21.581Z,6.30
2022-08-30T21:56:52.600Z,6.97
2022-08-30T21:59:21.644Z,6.05
2022-08-30T22:01:49.978Z,5.38
2022-08-30T22:04:17.854Z,5.57
2022-08-30T22:06:50.202Z,8.20
2022-08-30T22:09:25.412Z,5.68
2022-08-30T22:11:54.797Z,6.07
2022-08-30T22:14:23.138Z,6.07
2022-08-30T22:16:51.640Z,7.38
2022-08-30T22:19:25.013Z,7.50
2022-08-30T22:21:53.899Z,5.93
2022-08-30T22:24:32.276Z,6.93
2022-08-30T22:27:05.104Z,5.93
2022-08-30T22:29:33.467Z,6.63
2022-08-30T22:32:01.509Z,6.65
2022-08-30T22:34:29.391Z,9.02
2022-08-30T22:36:56.615Z,7.53
2022-08-30T22:39:25.437Z,7.05
2022-08-30T22:41:52.745Z,8.50
2022-08-30T22:44:19.971Z,9.23
2022-08-30T22:46:47.400Z,7.18
2022-08-30T22:49:14.750Z,6.10
2022-08-30T22:51:42.709Z,6.13
2022-08-30T22:54:11.784Z,6.30
2022-08-30T22:56:40.288Z,6.60
2022-08-30T22:59:07.882Z,7.40
2022-08-30T23:01:40.645Z,7.40
2022-08-30T23:04:09.448Z,5.72
2022-08-30T23:06:37.135Z,5.70
2022-08-30T23:09:06.347Z,5.93
2022-08-30T23:11:34.897Z,7.07
2022-08-30T23:14:04.695Z,6.10
2022-08-30T23:16:33.752Z,6.30
2022-08-30T23:19:01.247Z,5.93
2022-08-30T23:21:31.218Z,5.85
2022-08-30T23:24:18.218Z,7.53
2022-08-30T23:27:06.181Z,6.13
2022-08-30T23:29:53.856Z,6.10
2022-08-30T23:32:40.750Z,6.00
2022-08-30T23:35:32.049Z,7.13
2022-08-30T23:38:23.810Z,6.15
2022-08-30T23:41:10.769Z,5.95
2022-08-30T23:43:57.090Z,6.68
2022-08-30T23:46:43.033Z,6.65
2022-08-30T23:49:29.135Z,5.88
2022-08-30T23:52:15.035Z,5.85
2022-08-30T23:55:01.637Z,8.05
2022-08-30T23:57:47.634Z,6.28
